sensor_id;sensor_type;location;lat;lon;timestamp;pressure;altitude;pressure_sealevel;temperature;humidity
82951;BME280;72737;53.332;6.514;2023-12-28T00:01:15;100357.88;;;17.25;59.40
82951;BME280;72737;53.332;6.514;2023-12-28T00:03:40;100358.34;;;17.19;59.74
82951;BME280;72737;53.332;6.514;2023-12-28T00:06:06;100365.59;;;17.23;59.18
82951;BME280;72737;53.332;6.514;2023-12-28T00:08:32;100354.47;;;17.11;59.48
82951;BME280;72737;53.332;6.514;2023-12-28T00:10:57;100359.78;;;17.16;59.55
82951;BME280;72737;53.332;6.514;2023-12-28T00:13:23;100361.59;;;17.12;59.77
82951;BME280;72737;53.332;6.514;2023-12-28T00:15:48;100359.66;;;17.04;59.68
82951;BME280;72737;53.332;6.514;2023-12-28T00:18:14;100360.63;;;16.99;59.64
82951;BME280;72737;53.332;6.514;2023-12-28T00:20:39;100355.78;;;16.96;59.82
82951;BME280;72737;53.332;6.514;2023-12-28T00:23:04;100366.91;;;16.91;59.71
82951;BME280;72737;53.332;6.514;2023-12-28T00:25:31;100367.41;;;16.93;59.93
82951;BME280;72737;53.332;6.514;2023-12-28T00:27:57;100367.88;;;16.95;60.04
82951;BME280;72737;53.332;6.514;2023-12-28T00:30:22;100367.25;;;16.90;59.91
82951;BME280;72737;53.332;6.514;2023-12-28T00:32:48;100362.09;;;16.88;60.01
82951;BME280;72737;53.332;6.514;2023-12-28T00:35:13;100362.88;;;16.80;60.07
82951;BME280;72737;53.332;6.514;2023-12-28T00:37:39;100363.38;;;16.82;60.27
82951;BME280;72737;53.332;6.514;2023-12-28T00:40:05;100363.53;;;16.77;60.07
82951;BME280;72737;53.332;6.514;2023-12-28T00:42:30;100365.47;;;16.85;60.23
82951;BME280;72737;53.332;6.514;2023-12-28T00:44:56;100375.00;;;16.79;60.02
82951;BME280;72737;53.332;6.514;2023-12-28T00:47:21;100366.59;;;16.76;60.66
82951;BME280;72737;53.332;6.514;2023-12-28T00:49:46;100371.28;;;16.75;60.39
82951;BME280;72737;53.332;6.514;2023-12-28T00:52:12;100370.16;;;16.67;60.46
82951;BME280;72737;53.332;6.514;2023-12-28T00:54:37;100362.56;;;16.73;60.44
82951;BME280;72737;53.332;6.514;2023-12-28T00:57:03;100366.44;;;16.72;60.38
82951;BME280;72737;53.332;6.514;2023-12-28T00:59:29;100371.94;;;16.63;60.38
82951;BME280;72737;53.332;6.514;2023-12-28T01:01:56;100368.81;;;16.56;60.91
82951;BME280;72737;53.332;6.514;2023-12-28T01:04:21;100367.69;;;16.57;60.69
82951;BME280;72737;53.332;6.514;2023-12-28T01:06:49;100377.19;;;16.51;60.75
82951;BME280;72737;53.332;6.514;2023-12-28T01:09:15;100380.25;;;16.50;60.54
82951;BME280;72737;53.332;6.514;2023-12-28T01:11:40;100370.09;;;16.50;60.44
82951;BME280;72737;53.332;6.514;2023-12-28T01:14:06;100370.44;;;16.57;60.42
82951;BME280;72737;53.332;6.514;2023-12-28T01:16:31;100387.72;;;16.58;60.60
82951;BME280;72737;53.332;6.514;2023-12-28T01:18:56;100384.97;;;16.58;60.16
82951;BME280;72737;53.332;6.514;2023-12-28T01:21:22;100386.53;;;16.50;60.53
82951;BME280;72737;53.332;6.514;2023-12-28T01:23:47;100377.84;;;16.48;60.27
82951;BME280;72737;53.332;6.514;2023-12-28T01:26:13;100390.09;;;16.51;60.45
82951;BME280;72737;53.332;6.514;2023-12-28T01:28:39;100391.06;;;16.46;60.53
82951;BME280;72737;53.332;6.514;2023-12-28T01:31:05;100404.47;;;16.48;60.49
82951;BME280;72737;53.332;6.514;2023-12-28T01:33:30;100402.84;;;16.47;60.79
82951;BME280;72737;53.332;6.514;2023-12-28T01:35:55;100411.56;;;16.49;60.41
82951;BME280;72737;53.332;6.514;2023-12-28T01:38:21;100408.34;;;16.47;60.30
82951;BME280;72737;53.332;6.514;2023-12-28T01:40:46;100401.56;;;16.44;60.71
82951;BME280;72737;53.332;6.514;2023-12-28T01:43:12;100398.94;;;16.30;60.85
82951;BME280;72737;53.332;6.514;2023-12-28T01:45:37;100407.66;;;16.41;60.40
82951;BME280;72737;53.332;6.514;2023-12-28T01:48:03;100411.38;;;16.37;60.43
82951;BME280;72737;53.332;6.514;2023-12-28T01:50:30;100404.25;;;16.27;60.60
82951;BME280;72737;53.332;6.514;2023-12-28T01:52:58;100400.22;;;16.24;61.06
82951;BME280;72737;53.332;6.514;2023-12-28T01:55:26;100399.06;;;16.25;60.68
82951;BME280;72737;53.332;6.514;2023-12-28T01:57:54;100412.78;;;16.25;61.00
82951;BME280;72737;53.332;6.514;2023-12-28T02:00:21;100409.38;;;16.20;60.93
82951;BME280;72737;53.332;6.514;2023-12-28T02:02:47;100405.34;;;16.17;61.01
82951;BME280;72737;53.332;6.514;2023-12-28T02:05:13;100404.09;;;16.23;60.83
82951;BME280;72737;53.332;6.514;2023-12-28T02:07:38;100409.72;;;16.27;61.02
82951;BME280;72737;53.332;6.514;2023-12-28T02:10:04;100402.97;;;16.24;60.84
82951;BME280;72737;53.332;6.514;2023-12-28T02:12:30;100403.41;;;16.18;61.08
82951;BME280;72737;53.332;6.514;2023-12-28T02:14:55;100407.59;;;16.15;61.08
82951;BME280;72737;53.332;6.514;2023-12-28T02:17:30;100405.50;;;16.12;61.46
82951;BME280;72737;53.332;6.514;2023-12-28T02:19:58;100410.84;;;16.17;61.01
82951;BME280;72737;53.332;6.514;2023-12-28T02:22:26;100409.84;;;16.13;60.68
82951;BME280;72737;53.332;6.514;2023-12-28T02:27:47;100408.88;;;16.09;60.78
82951;BME280;72737;53.332;6.514;2023-12-28T02:30:15;100416.47;;;16.12;61.04
82951;BME280;72737;53.332;6.514;2023-12-28T02:35:42;100404.66;;;16.03;61.29
82951;BME280;72737;53.332;6.514;2023-12-28T02:38:09;100407.53;;;15.98;61.55
82951;BME280;72737;53.332;6.514;2023-12-28T02:40:40;100404.97;;;16.02;61.18
82951;BME280;72737;53.332;6.514;2023-12-28T02:43:08;100403.19;;;15.97;61.54
82951;BME280;72737;53.332;6.514;2023-12-28T02:45:34;100396.56;;;15.98;61.43
82951;BME280;72737;53.332;6.514;2023-12-28T02:48:00;100390.72;;;15.91;61.53
82951;BME280;72737;53.332;6.514;2023-12-28T02:50:25;100390.44;;;15.93;61.53
82951;BME280;72737;53.332;6.514;2023-12-28T02:52:50;100389.91;;;15.91;61.52
82951;BME280;72737;53.332;6.514;2023-12-28T02:55:16;100392.50;;;15.87;61.61
82951;BME280;72737;53.332;6.514;2023-12-28T02:57:43;100390.56;;;15.87;61.52
82951;BME280;72737;53.332;6.514;2023-12-28T03:00:09;100385.69;;;15.84;61.98
82951;BME280;72737;53.332;6.514;2023-12-28T03:02:38;100381.69;;;15.82;62.01
82951;BME280;72737;53.332;6.514;2023-12-28T03:05:04;100375.88;;;15.83;61.66
82951;BME280;72737;53.332;6.514;2023-12-28T03:07:30;100372.47;;;15.78;61.47
82951;BME280;72737;53.332;6.514;2023-12-28T03:09:56;100377.81;;;15.83;61.64
82951;BME280;72737;53.332;6.514;2023-12-28T03:12:21;100369.75;;;15.86;61.53
82951;BME280;72737;53.332;6.514;2023-12-28T03:14:47;100374.28;;;15.82;61.61
82951;BME280;72737;53.332;6.514;2023-12-28T03:17:12;100382.50;;;15.82;61.49
82951;BME280;72737;53.332;6.514;2023-12-28T03:19:38;100378.44;;;15.80;61.19
82951;BME280;72737;53.332;6.514;2023-12-28T03:22:04;100375.53;;;15.76;61.96
82951;BME280;72737;53.332;6.514;2023-12-28T03:24:29;100378.56;;;15.75;61.51
82951;BME280;72737;53.332;6.514;2023-12-28T03:26:54;100372.34;;;15.83;61.38
82951;BME280;72737;53.332;6.514;2023-12-28T03:29:20;100370.84;;;15.77;61.21
82951;BME280;72737;53.332;6.514;2023-12-28T03:31:45;100361.81;;;15.76;61.55
82951;BME280;72737;53.332;6.514;2023-12-28T03:34:11;100368.91;;;15.69;62.03
82951;BME280;72737;53.332;6.514;2023-12-28T03:36:36;100372.94;;;15.80;61.50
82951;BME280;72737;53.332;6.514;2023-12-28T03:39:01;100374.09;;;15.79;61.37
82951;BME280;72737;53.332;6.514;2023-12-28T03:41:28;100373.91;;;15.75;61.63
82951;BME280;72737;53.332;6.514;2023-12-28T03:43:54;100368.41;;;15.75;61.26
82951;BME280;72737;53.332;6.514;2023-12-28T03:46:19;100362.28;;;15.70;61.62
82951;BME280;72737;53.332;6.514;2023-12-28T03:48:44;100348.56;;;15.70;61.49
82951;BME280;72737;53.332;6.514;2023-12-28T03:51:16;100360.03;;;15.72;61.73
82951;BME280;72737;53.332;6.514;2023-12-28T03:53:42;100348.25;;;15.71;61.41
82951;BME280;72737;53.332;6.514;2023-12-28T03:56:07;100347.13;;;15.64;61.52
82951;BME280;72737;53.332;6.514;2023-12-28T03:58:32;100343.22;;;15.65;61.79
82951;BME280;72737;53.332;6.514;2023-12-28T04:00:58;100340.31;;;15.61;61.75
82951;BME280;72737;53.332;6.514;2023-12-28T04:03:24;100336.16;;;15.64;61.47
82951;BME280;72737;53.332;6.514;2023-12-28T04:05:50;100345.34;;;15.68;61.69
82951;BME280;72737;53.332;6.514;2023-12-28T04:08:16;100336.78;;;15.61;61.67
82951;BME280;72737;53.332;6.514;2023-12-28T04:10:41;100329.72;;;15.68;61.23
82951;BME280;72737;53.332;6.514;2023-12-28T04:13:07;100331.47;;;15.64;61.60
82951;BME280;72737;53.332;6.514;2023-12-28T04:15:32;100334.53;;;15.63;61.88
82951;BME280;72737;53.332;6.514;2023-12-28T04:17:57;100338.09;;;15.63;61.39
82951;BME280;72737;53.332;6.514;2023-12-28T04:20:23;100332.09;;;15.61;61.66
82951;BME280;72737;53.332;6.514;2023-12-28T04:22:48;100329.38;;;15.61;61.67
82951;BME280;72737;53.332;6.514;2023-12-28T04:25:14;100340.03;;;15.63;62.00
82951;BME280;72737;53.332;6.514;2023-12-28T04:27:42;100337.28;;;15.63;61.13
82951;BME280;72737;53.332;6.514;2023-12-28T04:30:11;100331.81;;;15.63;61.61
82951;BME280;72737;53.332;6.514;2023-12-28T04:32:36;100342.91;;;15.58;61.50
82951;BME280;72737;53.332;6.514;2023-12-28T04:35:02;100338.41;;;15.62;61.84
82951;BME280;72737;53.332;6.514;2023-12-28T04:37:28;100330.19;;;15.62;61.62
82951;BME280;72737;53.332;6.514;2023-12-28T04:39:54;100337.88;;;15.60;61.53
82951;BME280;72737;53.332;6.514;2023-12-28T04:42:19;100345.38;;;15.45;61.89
82951;BME280;72737;53.332;6.514;2023-12-28T04:44:45;100326.59;;;15.53;61.54
82951;BME280;72737;53.332;6.514;2023-12-28T04:47:10;100334.53;;;15.63;61.05
82951;BME280;72737;53.332;6.514;2023-12-28T04:49:35;100323.56;;;15.54;61.20
82951;BME280;72737;53.332;6.514;2023-12-28T04:52:01;100308.25;;;15.53;61.48
82951;BME280;72737;53.332;6.514;2023-12-28T04:54:26;100322.91;;;15.57;61.11
82951;BME280;72737;53.332;6.514;2023-12-28T04:56:52;100309.88;;;15.54;61.31
82951;BME280;72737;53.332;6.514;2023-12-28T04:59:17;100311.28;;;15.52;61.88
82951;BME280;72737;53.332;6.514;2023-12-28T05:01:43;100315.09;;;15.51;61.85
82951;BME280;72737;53.332;6.514;2023-12-28T05:04:09;100319.78;;;15.50;61.72
82951;BME280;72737;53.332;6.514;2023-12-28T05:06:34;100321.69;;;15.50;61.56
82951;BME280;72737;53.332;6.514;2023-12-28T05:09:00;100321.59;;;15.55;61.45
82951;BME280;72737;53.332;6.514;2023-12-28T05:11:26;100320.81;;;15.54;61.45
82951;BME280;72737;53.332;6.514;2023-12-28T05:13:51;100323.06;;;15.61;60.80
82951;BME280;72737;53.332;6.514;2023-12-28T05:16:17;100310.47;;;15.51;60.98
82951;BME280;72737;53.332;6.514;2023-12-28T05:18:42;100310.28;;;15.48;61.14
82951;BME280;72737;53.332;6.514;2023-12-28T05:21:08;100308.66;;;15.46;61.78
82951;BME280;72737;53.332;6.514;2023-12-28T05:23:33;100299.47;;;15.42;61.23
82951;BME280;72737;53.332;6.514;2023-12-28T05:25:58;100315.03;;;15.33;61.77
82951;BME280;72737;53.332;6.514;2023-12-28T05:28:24;100315.88;;;15.42;61.87
82951;BME280;72737;53.332;6.514;2023-12-28T05:30:49;100316.19;;;15.41;61.79
82951;BME280;72737;53.332;6.514;2023-12-28T05:33:14;100290.75;;;15.40;61.16
82951;BME280;72737;53.332;6.514;2023-12-28T05:35:40;100305.28;;;15.50;61.61
82951;BME280;72737;53.332;6.514;2023-12-28T05:38:05;100295.75;;;15.38;61.58
82951;BME280;72737;53.332;6.514;2023-12-28T05:40:30;100313.63;;;15.44;61.55
82951;BME280;72737;53.332;6.514;2023-12-28T05:42:56;100282.09;;;15.47;61.43
82951;BME280;72737;53.332;6.514;2023-12-28T05:45:21;100286.75;;;15.46;61.55
82951;BME280;72737;53.332;6.514;2023-12-28T05:47:47;100293.47;;;15.40;61.18
82951;BME280;72737;53.332;6.514;2023-12-28T05:50:12;100308.13;;;15.36;61.06
82951;BME280;72737;53.332;6.514;2023-12-28T05:52:37;100313.28;;;15.37;61.41
82951;BME280;72737;53.332;6.514;2023-12-28T05:55:04;100298.94;;;15.40;61.01
82951;BME280;72737;53.332;6.514;2023-12-28T05:57:29;100320.19;;;15.35;60.89
82951;BME280;72737;53.332;6.514;2023-12-28T05:59:59;100303.06;;;15.29;61.37
82951;BME280;72737;53.332;6.514;2023-12-28T06:02:24;100310.03;;;15.35;61.05
82951;BME280;72737;53.332;6.514;2023-12-28T06:04:49;100299.88;;;15.27;61.37
82951;BME280;72737;53.332;6.514;2023-12-28T06:07:15;100306.81;;;15.33;60.82
82951;BME280;72737;53.332;6.514;2023-12-28T06:09:40;100304.09;;;15.33;61.14
82951;BME280;72737;53.332;6.514;2023-12-28T06:12:06;100298.06;;;15.23;61.37
82951;BME280;72737;53.332;6.514;2023-12-28T06:14:31;100294.09;;;15.29;61.16
82951;BME280;72737;53.332;6.514;2023-12-28T06:16:56;100296.00;;;15.28;61.38
82951;BME280;72737;53.332;6.514;2023-12-28T06:19:22;100304.34;;;15.23;61.66
82951;BME280;72737;53.332;6.514;2023-12-28T06:21:50;100308.69;;;15.24;61.54
82951;BME280;72737;53.332;6.514;2023-12-28T06:24:16;100308.22;;;15.22;61.51
82951;BME280;72737;53.332;6.514;2023-12-28T06:26:42;100308.81;;;15.19;61.38
82951;BME280;72737;53.332;6.514;2023-12-28T06:29:09;100315.31;;;15.23;61.18
82951;BME280;72737;53.332;6.514;2023-12-28T06:31:35;100296.44;;;15.22;61.65
82951;BME280;72737;53.332;6.514;2023-12-28T06:34:04;100309.75;;;15.15;61.78
82951;BME280;72737;53.332;6.514;2023-12-28T06:36:30;100326.06;;;15.20;61.56
82951;BME280;72737;53.332;6.514;2023-12-28T06:38:56;100325.88;;;15.16;61.80
82951;BME280;72737;53.332;6.514;2023-12-28T06:41:21;100302.56;;;15.19;61.18
82951;BME280;72737;53.332;6.514;2023-12-28T06:43:47;100322.03;;;15.17;61.50
82951;BME280;72737;53.332;6.514;2023-12-28T06:46:12;100308.34;;;15.17;61.35
82951;BME280;72737;53.332;6.514;2023-12-28T06:48:38;100313.31;;;15.15;61.56
82951;BME280;72737;53.332;6.514;2023-12-28T06:51:06;100306.59;;;15.21;61.20
82951;BME280;72737;53.332;6.514;2023-12-28T06:53:31;100306.59;;;15.21;61.38
82951;BME280;72737;53.332;6.514;2023-12-28T06:55:56;100306.91;;;15.20;60.97
82951;BME280;72737;53.332;6.514;2023-12-28T06:58:22;100311.88;;;15.18;61.23
82951;BME280;72737;53.332;6.514;2023-12-28T07:00:47;100307.03;;;15.15;61.40
82951;BME280;72737;53.332;6.514;2023-12-28T07:03:13;100303.47;;;15.14;61.11
82951;BME280;72737;53.332;6.514;2023-12-28T07:05:38;100323.56;;;15.10;61.29
82951;BME280;72737;53.332;6.514;2023-12-28T07:08:04;100309.84;;;15.01;62.24
82951;BME280;72737;53.332;6.514;2023-12-28T07:10:29;100323.56;;;15.10;61.60
82951;BME280;72737;53.332;6.514;2023-12-28T07:12:54;100326.78;;;15.03;62.31
82951;BME280;72737;53.332;6.514;2023-12-28T07:15:20;100327.75;;;15.07;61.89
82951;BME280;72737;53.332;6.514;2023-12-28T07:17:45;100330.75;;;14.97;61.99
82951;BME280;72737;53.332;6.514;2023-12-28T07:20:10;100332.25;;;15.03;62.18
82951;BME280;72737;53.332;6.514;2023-12-28T07:22:37;100338.28;;;15.14;62.25
82951;BME280;72737;53.332;6.514;2023-12-28T07:25:03;100341.50;;;15.16;62.11
82951;BME280;72737;53.332;6.514;2023-12-28T07:27:29;100342.84;;;15.27;61.35
82951;BME280;72737;53.332;6.514;2023-12-28T07:29:54;100351.25;;;15.30;60.96
82951;BME280;72737;53.332;6.514;2023-12-28T07:32:20;100338.06;;;15.32;61.18
82951;BME280;72737;53.332;6.514;2023-12-28T07:34:48;100368.47;;;15.31;61.49
82951;BME280;72737;53.332;6.514;2023-12-28T07:37:13;100370.41;;;15.30;61.13
82951;BME280;72737;53.332;6.514;2023-12-28T07:39:38;100367.13;;;15.20;61.95
82951;BME280;72737;53.332;6.514;2023-12-28T07:42:04;100365.00;;;15.17;62.15
82951;BME280;72737;53.332;6.514;2023-12-28T07:44:29;100382.84;;;15.14;61.70
82951;BME280;72737;53.332;6.514;2023-12-28T07:46:55;100378.81;;;15.12;62.12
82951;BME280;72737;53.332;6.514;2023-12-28T07:49:21;100377.72;;;15.13;61.72
82951;BME280;72737;53.332;6.514;2023-12-28T07:51:46;100399.91;;;15.11;62.22
82951;BME280;72737;53.332;6.514;2023-12-28T07:54:12;100399.91;;;15.11;62.03
82951;BME280;72737;53.332;6.514;2023-12-28T07:56:37;100383.47;;;15.11;62.63
82951;BME280;72737;53.332;6.514;2023-12-28T07:59:02;100398.50;;;15.14;62.37
82951;BME280;72737;53.332;6.514;2023-12-28T08:01:28;100386.47;;;15.23;62.01
82951;BME280;72737;53.332;6.514;2023-12-28T08:03:54;100382.13;;;15.22;62.29
82951;BME280;72737;53.332;6.514;2023-12-28T08:06:20;100415.09;;;15.17;62.13
82951;BME280;72737;53.332;6.514;2023-12-28T08:08:45;100403.72;;;15.24;62.43
82951;BME280;72737;53.332;6.514;2023-12-28T08:11:10;100413.09;;;15.31;61.88
82951;BME280;72737;53.332;6.514;2023-12-28T08:13:37;100408.56;;;15.27;61.96
82951;BME280;72737;53.332;6.514;2023-12-28T08:16:02;100423.66;;;15.24;62.58
82951;BME280;72737;53.332;6.514;2023-12-28T08:18:28;100409.66;;;15.26;61.98
82951;BME280;72737;53.332;6.514;2023-12-28T08:20:53;100418.06;;;15.29;61.86
82951;BME280;72737;53.332;6.514;2023-12-28T08:23:19;100411.34;;;15.35;61.58
82951;BME280;72737;53.332;6.514;2023-12-28T08:25:45;100415.41;;;15.38;62.00
82951;BME280;72737;53.332;6.514;2023-12-28T08:28:10;100403.00;;;15.40;62.48
82951;BME280;72737;53.332;6.514;2023-12-28T08:30:35;100400.78;;;15.42;61.59
82951;BME280;72737;53.332;6.514;2023-12-28T08:33:01;100409.00;;;15.42;62.01
82951;BME280;72737;53.332;6.514;2023-12-28T08:35:26;100413.16;;;15.40;62.47
82951;BME280;72737;53.332;6.514;2023-12-28T08:37:51;100415.69;;;15.36;62.65
82951;BME280;72737;53.332;6.514;2023-12-28T08:40:17;100417.06;;;15.25;63.03
82951;BME280;72737;53.332;6.514;2023-12-28T08:42:42;100404.19;;;15.26;62.80
82951;BME280;72737;53.332;6.514;2023-12-28T08:45:08;100402.91;;;15.23;62.80
82951;BME280;72737;53.332;6.514;2023-12-28T08:47:33;100412.22;;;15.22;62.39
82951;BME280;72737;53.332;6.514;2023-12-28T08:49:58;100419.31;;;15.23;62.80
82951;BME280;72737;53.332;6.514;2023-12-28T08:52:24;100425.03;;;15.13;63.02
82951;BME280;72737;53.332;6.514;2023-12-28T08:54:49;100443.94;;;15.01;63.12
82951;BME280;72737;53.332;6.514;2023-12-28T08:57:15;100444.31;;;15.08;63.34
82951;BME280;72737;53.332;6.514;2023-12-28T08:59:40;100439.97;;;15.07;63.12
82951;BME280;72737;53.332;6.514;2023-12-28T09:02:06;100438.06;;;14.94;63.28
82951;BME280;72737;53.332;6.514;2023-12-28T09:04:32;100450.72;;;15.03;62.94
82951;BME280;72737;53.332;6.514;2023-12-28T09:06:57;100448.78;;;15.04;63.22
82951;BME280;72737;53.332;6.514;2023-12-28T09:09:23;100454.25;;;15.04;63.22
82951;BME280;72737;53.332;6.514;2023-12-28T09:11:48;100434.97;;;15.09;62.38
82951;BME280;72737;53.332;6.514;2023-12-28T09:14:13;100448.06;;;15.12;62.18
82951;BME280;72737;53.332;6.514;2023-12-28T09:16:39;100443.13;;;15.00;62.59
82951;BME280;72737;53.332;6.514;2023-12-28T09:19:05;100443.53;;;14.94;62.91
82951;BME280;72737;53.332;6.514;2023-12-28T09:21:31;100464.81;;;14.97;63.14
82951;BME280;72737;53.332;6.514;2023-12-28T09:23:56;100453.38;;;14.95;62.72
82951;BME280;72737;53.332;6.514;2023-12-28T09:26:22;100447.41;;;14.93;62.90
82951;BME280;72737;53.332;6.514;2023-12-28T09:28:47;100465.22;;;14.90;62.66
82951;BME280;72737;53.332;6.514;2023-12-28T09:31:13;100465.13;;;14.95;62.47
82951;BME280;72737;53.332;6.514;2023-12-28T09:33:38;100465.81;;;15.01;62.63
82951;BME280;72737;53.332;6.514;2023-12-28T09:36:04;100487.38;;;15.16;61.61
82951;BME280;72737;53.332;6.514;2023-12-28T09:38:29;100469.53;;;15.19;62.17
82951;BME280;72737;53.332;6.514;2023-12-28T09:40:58;100467.28;;;15.21;62.04
82951;BME280;72737;53.332;6.514;2023-12-28T09:43:25;100468.31;;;15.11;61.84
82951;BME280;72737;53.332;6.514;2023-12-28T09:45:51;100481.91;;;15.16;61.62
82951;BME280;72737;53.332;6.514;2023-12-28T09:48:17;100470.44;;;15.14;62.26
82951;BME280;72737;53.332;6.514;2023-12-28T09:53:16;100494.94;;;15.19;61.68
82951;BME280;72737;53.332;6.514;2023-12-28T09:55:42;100489.81;;;15.18;61.76
82951;BME280;72737;53.332;6.514;2023-12-28T09:58:09;100507.28;;;15.08;61.53
82951;BME280;72737;53.332;6.514;2023-12-28T10:00:35;100503.91;;;15.11;62.26
82951;BME280;72737;53.332;6.514;2023-12-28T10:03:00;100503.91;;;15.11;61.86
82951;BME280;72737;53.332;6.514;2023-12-28T10:05:25;100497.13;;;15.09;62.23
82951;BME280;72737;53.332;6.514;2023-12-28T10:07:51;100500.06;;;15.12;62.12
82951;BME280;72737;53.332;6.514;2023-12-28T10:10:16;100503.72;;;15.08;62.04
82951;BME280;72737;53.332;6.514;2023-12-28T10:12:42;100518.09;;;15.13;61.94
82951;BME280;72737;53.332;6.514;2023-12-28T10:15:08;100517.06;;;15.09;62.11
82951;BME280;72737;53.332;6.514;2023-12-28T10:17:33;100505.13;;;15.05;61.50
82951;BME280;72737;53.332;6.514;2023-12-28T10:20:00;100520.31;;;15.11;62.16
82951;BME280;72737;53.332;6.514;2023-12-28T10:22:34;100515.84;;;15.15;61.28
82951;BME280;72737;53.332;6.514;2023-12-28T10:25:01;100528.69;;;14.92;62.13
82951;BME280;72737;53.332;6.514;2023-12-28T10:27:27;100528.03;;;15.09;62.23
82951;BME280;72737;53.332;6.514;2023-12-28T10:29:54;100523.13;;;15.20;61.51
82951;BME280;72737;53.332;6.514;2023-12-28T10:32:20;100524.75;;;15.21;61.28
82951;BME280;72737;53.332;6.514;2023-12-28T10:34:46;100533.03;;;15.29;61.24
82951;BME280;72737;53.332;6.514;2023-12-28T10:37:11;100532.25;;;15.29;62.19
82951;BME280;72737;53.332;6.514;2023-12-28T10:39:40;100530.41;;;15.24;61.72
82951;BME280;72737;53.332;6.514;2023-12-28T10:42:09;100529.19;;;15.30;61.73
82951;BME280;72737;53.332;6.514;2023-12-28T10:44:40;100533.25;;;15.33;62.00
82951;BME280;72737;53.332;6.514;2023-12-28T10:47:15;100546.44;;;15.31;61.58
82951;BME280;72737;53.332;6.514;2023-12-28T10:49:46;100531.00;;;15.35;61.57
82951;BME280;72737;53.332;6.514;2023-12-28T10:52:16;100527.97;;;15.36;62.03
82951;BME280;72737;53.332;6.514;2023-12-28T10:54:49;100531.69;;;15.40;62.33
82951;BME280;72737;53.332;6.514;2023-12-28T10:57:22;100531.41;;;15.42;62.11
82951;BME280;72737;53.332;6.514;2023-12-28T11:02:28;100514.47;;;15.54;62.61
82951;BME280;72737;53.332;6.514;2023-12-28T11:04:54;100534.97;;;15.65;62.46
82951;BME280;72737;53.332;6.514;2023-12-28T11:07:21;100533.75;;;15.71;62.66
82951;BME280;72737;53.332;6.514;2023-12-28T11:09:47;100523.28;;;15.73;62.75
82951;BME280;72737;53.332;6.514;2023-12-28T11:12:16;100512.69;;;15.80;62.55
82951;BME280;72737;53.332;6.514;2023-12-28T11:14:44;100536.75;;;15.83;63.14
82951;BME280;72737;53.332;6.514;2023-12-28T11:17:10;100533.06;;;15.87;62.83
82951;BME280;72737;53.332;6.514;2023-12-28T11:19:36;100517.59;;;15.92;62.95
82951;BME280;72737;53.332;6.514;2023-12-28T11:22:03;100531.47;;;15.95;62.98
82951;BME280;72737;53.332;6.514;2023-12-28T11:24:29;100543.59;;;15.94;63.27
82951;BME280;72737;53.332;6.514;2023-12-28T11:26:56;100532.81;;;15.98;63.31
82951;BME280;72737;53.332;6.514;2023-12-28T11:29:23;100526.88;;;16.04;63.08
82951;BME280;72737;53.332;6.514;2023-12-28T11:31:55;100526.06;;;16.04;63.69
82951;BME280;72737;53.332;6.514;2023-12-28T11:34:25;100536.09;;;16.08;63.23
82951;BME280;72737;53.332;6.514;2023-12-28T11:36:52;100524.50;;;16.11;63.72
82951;BME280;72737;53.332;6.514;2023-12-28T11:39:33;100539.00;;;16.12;63.38
82951;BME280;72737;53.332;6.514;2023-12-28T11:42:08;100532.09;;;16.14;63.58
82951;BME280;72737;53.332;6.514;2023-12-28T11:44:41;100526.63;;;16.14;64.01
82951;BME280;72737;53.332;6.514;2023-12-28T11:47:21;100520.00;;;16.15;63.59
82951;BME280;72737;53.332;6.514;2023-12-28T11:49:47;100530.47;;;16.13;63.82
82951;BME280;72737;53.332;6.514;2023-12-28T11:52:30;100522.94;;;16.19;63.64
82951;BME280;72737;53.332;6.514;2023-12-28T11:54:57;100523.09;;;16.22;64.18
82951;BME280;72737;53.332;6.514;2023-12-28T11:57:23;100517.63;;;16.22;64.15
82951;BME280;72737;53.332;6.514;2023-12-28T11:59:57;100516.50;;;16.23;63.88
82951;BME280;72737;53.332;6.514;2023-12-28T12:02:23;100518.28;;;16.28;63.95
82951;BME280;72737;53.332;6.514;2023-12-28T12:04:49;100514.44;;;16.29;63.88
82951;BME280;72737;53.332;6.514;2023-12-28T12:07:15;100514.09;;;16.30;64.34
82951;BME280;72737;53.332;6.514;2023-12-28T12:09:40;100521.22;;;16.31;64.01
82951;BME280;72737;53.332;6.514;2023-12-28T12:12:06;100507.50;;;16.31;64.10
82951;BME280;72737;53.332;6.514;2023-12-28T12:14:34;100521.72;;;16.34;63.90
82951;BME280;72737;53.332;6.514;2023-12-28T12:17:00;100515.59;;;16.37;64.45
82951;BME280;72737;53.332;6.514;2023-12-28T12:19:26;100506.53;;;16.36;63.88
82951;BME280;72737;53.332;6.514;2023-12-28T12:21:55;100506.88;;;16.35;64.24
82951;BME280;72737;53.332;6.514;2023-12-28T12:24:21;100508.16;;;16.37;64.29
82951;BME280;72737;53.332;6.514;2023-12-28T12:26:47;100493.94;;;16.35;64.08
82951;BME280;72737;53.332;6.514;2023-12-28T12:29:13;100501.88;;;16.37;64.19
82951;BME280;72737;53.332;6.514;2023-12-28T12:31:42;100495.78;;;16.40;63.64
82951;BME280;72737;53.332;6.514;2023-12-28T12:34:09;100505.59;;;16.41;64.05
82951;BME280;72737;53.332;6.514;2023-12-28T12:36:35;100503.19;;;16.39;63.98
82951;BME280;72737;53.332;6.514;2023-12-28T12:39:01;100499.94;;;16.37;63.92
82951;BME280;72737;53.332;6.514;2023-12-28T12:41:28;100495.09;;;16.34;63.63
82951;BME280;72737;53.332;6.514;2023-12-28T12:43:53;100503.00;;;16.36;63.94
82951;BME280;72737;53.332;6.514;2023-12-28T12:46:22;100498.00;;;16.38;63.58
82951;BME280;72737;53.332;6.514;2023-12-28T12:48:55;100505.13;;;16.39;63.72
82951;BME280;72737;53.332;6.514;2023-12-28T12:51:21;100502.22;;;16.44;63.57
82951;BME280;72737;53.332;6.514;2023-12-28T12:53:46;100520.78;;;16.47;63.63
82951;BME280;72737;53.332;6.514;2023-12-28T12:56:12;100508.84;;;16.43;63.44